Terminal Aerodrome Forecast
Issued by NWS

Home | Current Version | Previous Version | Text Only | Print | Product List | Glossary On
Versions: 1 2 3 4 5 6 7 8 9 10 11 12 13 14 15 16
000
FTPA31 PHFO 242300
TAFOGG
TAF
PHOG 242338Z 2500/2524 06015G23KT P6SM FEW035 SCT070
     FM250500 05010KT P6SM FEW035 SCT060
     FM250900 12004KT P6SM FEW035
     FM252000 06013G21KT P6SM FEW030 SCT060
      AMD LTD TO WX VIS AND WIND 2509/2516=

USA.gov is the U.S. government's official web portal to all federal, state and local government web resources and services.